createdAt,value
2022-12-07T00:01:23.625Z,3.10
2022-12-07T00:03:52.313Z,3.10
2022-12-07T00:06:20.168Z,3.10
2022-12-07T00:08:47.589Z,3.10
2022-12-07T00:11:17.362Z,3.10
2022-12-07T00:13:44.529Z,3.10
2022-12-07T00:16:14.416Z,3.10
2022-12-07T00:18:41.726Z,3.10
2022-12-07T00:21:10.610Z,3.10
2022-12-07T00:23:37.475Z,3.20
2022-12-07T00:26:09.027Z,3.20
2022-12-07T00:28:36.114Z,3.20
2022-12-07T00:31:05.266Z,3.20
2022-12-07T00:33:33.045Z,3.20
2022-12-07T00:36:00.140Z,3.20
2022-12-07T00:38:29.856Z,3.10
2022-12-07T00:41:05.068Z,3.10
2022-12-07T00:43:32.264Z,3.20
2022-12-07T00:45:59.394Z,3.20
2022-12-07T00:48:26.833Z,3.20
2022-12-07T00:50:53.628Z,3.20
2022-12-07T00:53:20.468Z,3.20
2022-12-07T00:55:47.210Z,3.20
2022-12-07T00:58:13.873Z,3.20
2022-12-07T01:00:42.308Z,3.10
2022-12-07T01:03:10.860Z,3.10
2022-12-07T01:05:37.533Z,3.10
2022-12-07T01:08:04.603Z,3.10
2022-12-07T01:10:31.623Z,3.10
2022-12-07T01:12:59.124Z,3.10
2022-12-07T01:15:26.938Z,3.10
2022-12-07T01:17:54.154Z,3.10
2022-12-07T01:20:20.731Z,3.10
2022-12-07T01:22:47.280Z,3.10
2022-12-07T01:25:13.896Z,3.10
2022-12-07T01:27:40.443Z,3.20
2022-12-07T01:30:08.078Z,3.10
2022-12-07T01:32:34.983Z,3.10
2022-12-07T01:35:01.575Z,3.10
2022-12-07T01:37:28.161Z,3.10
2022-12-07T01:39:54.879Z,3.10
2022-12-07T01:42:21.441Z,3.10
2022-12-07T01:45:18.852Z,3.10
2022-12-07T01:47:51.892Z,3.10
2022-12-07T01:50:19.177Z,3.10
2022-12-07T01:52:49.461Z,3.10
2022-12-07T01:55:16.496Z,3.10
2022-12-07T01:57:47.328Z,3.10
2022-12-07T02:00:14.410Z,3.10
2022-12-07T02:02:49.625Z,3.10
2022-12-07T02:05:17.582Z,3.10
2022-12-07T02:07:45.456Z,3.10
2022-12-07T02:10:17.044Z,3.10
2022-12-07T02:12:46.212Z,3.10
2022-12-07T02:15:13.323Z,3.10
2022-12-07T02:18:02.145Z,3.10
2022-12-07T02:20:32.950Z,3.10
2022-12-07T02:23:25.210Z,3.10
2022-12-07T02:26:20.667Z,3.10
2022-12-07T02:29:12.579Z,3.10
2022-12-07T02:32:06.626Z,3.00
2022-12-07T02:34:56.160Z,3.00
2022-12-07T02:37:34.912Z,3.00
2022-12-07T02:40:17.884Z,3.00
2022-12-07T02:42:50.201Z,3.00
2022-12-07T02:45:21.012Z,3.00
2022-12-07T02:47:51.400Z,3.00
2022-12-07T02:50:21.198Z,3.00
2022-12-07T02:52:47.924Z,3.00
2022-12-07T02:55:19.857Z,3.00
2022-12-07T02:58:02.384Z,3.00
2022-12-07T03:00:31.013Z,2.90
2022-12-07T03:03:11.331Z,3.00
2022-12-07T03:06:00.846Z,2.90
2022-12-07T03:09:12.697Z,2.80
2022-12-07T03:11:58.935Z,2.90
2022-12-07T03:14:34.863Z,2.90
2022-12-07T03:17:16.620Z,2.90
2022-12-07T03:19:45.867Z,2.90
2022-12-07T03:22:14.582Z,2.90
2022-12-07T03:24:55.947Z,2.90
2022-12-07T03:27:59.240Z,2.90
2022-12-07T03:30:48.379Z,2.90
2022-12-07T03:33:30.090Z,2.90
2022-12-07T03:36:09.894Z,2.90
2022-12-07T03:38:43.440Z,2.90
2022-12-07T03:41:17.480Z,2.80
2022-12-07T03:43:44.079Z,2.90
2022-12-07T03:46:21.616Z,2.90
2022-12-07T03:48:59.865Z,2.90
2022-12-07T03:51:38.480Z,2.90
2022-12-07T03:54:24.109Z,2.90
2022-12-07T03:56:52.362Z,2.90
2022-12-07T03:59:19.998Z,2.90
2022-12-07T04:01:56.146Z,2.90
2022-12-07T04:04:25.356Z,2.90
2022-12-07T04:06:52.298Z,2.90
2022-12-07T04:09:19.002Z,2.90
2022-12-07T04:11:45.588Z,2.90
2022-12-07T04:14:12.338Z,2.90
2022-12-07T04:16:44.212Z,2.90
2022-12-07T04:19:11.404Z,2.90
2022-12-07T04:21:38.183Z,2.80
2022-12-07T04:24:05.482Z,2.80
2022-12-07T04:26:32.124Z,2.80
2022-12-07T04:29:01.391Z,2.90
2022-12-07T04:31:31.526Z,2.90
2022-12-07T04:33:58.151Z,2.80
2022-12-07T04:36:24.874Z,2.80
2022-12-07T04:38:54.778Z,2.80
2022-12-07T04:41:22.331Z,2.80
2022-12-07T04:43:48.910Z,2.80
2022-12-07T04:46:15.489Z,2.80
2022-12-07T04:48:42.089Z,2.80
2022-12-07T04:51:08.677Z,2.80
2022-12-07T04:53:35.237Z,2.80
2022-12-07T04:56:01.804Z,2.80
2022-12-07T04:58:28.368Z,2.80
2022-12-07T05:00:55.916Z,2.80
2022-12-07T05:03:22.517Z,2.80
2022-12-07T05:05:49.093Z,2.80
2022-12-07T05:08:15.698Z,2.80
2022-12-07T05:10:42.324Z,2.80
2022-12-07T05:13:08.879Z,2.70
2022-12-07T05:15:35.474Z,2.70
2022-12-07T05:18:02.204Z,2.70
2022-12-07T05:20:28.775Z,2.70
2022-12-07T05:22:55.337Z,2.70
2022-12-07T05:25:21.893Z,2.70
2022-12-07T05:27:48.475Z,2.70
2022-12-07T05:30:15.123Z,2.70
2022-12-07T05:32:41.699Z,2.60
2022-12-07T05:35:08.777Z,2.60
2022-12-07T05:37:35.342Z,2.50
2022-12-07T05:40:02.273Z,2.40
2022-12-07T05:42:29.105Z,2.40
2022-12-07T05:44:55.686Z,2.50
2022-12-07T05:47:22.424Z,2.40
2022-12-07T05:49:48.979Z,2.40
2022-12-07T05:52:16.101Z,2.40
2022-12-07T05:54:42.751Z,2.30
2022-12-07T05:57:09.353Z,2.40
2022-12-07T05:59:35.921Z,2.40
2022-12-07T06:02:09.223Z,2.40
2022-12-07T06:04:38.749Z,2.40
2022-12-07T06:07:06.296Z,2.40
2022-12-07T06:09:33.765Z,2.40
2022-12-07T06:12:01.097Z,2.40
2022-12-07T06:14:27.676Z,2.30
2022-12-07T06:16:54.307Z,2.30
2022-12-07T06:19:20.986Z,2.40
2022-12-07T06:21:47.608Z,2.30
2022-12-07T06:24:15.611Z,2.30
2022-12-07T06:26:42.547Z,2.30
2022-12-07T06:29:09.437Z,2.30
2022-12-07T06:31:37.287Z,2.30
2022-12-07T06:34:06.927Z,2.20
2022-12-07T06:36:34.028Z,2.20
2022-12-07T06:39:00.693Z,2.20
2022-12-07T06:41:27.347Z,2.20
2022-12-07T06:43:56.288Z,2.30
2022-12-07T06:46:23.493Z,2.20
2022-12-07T06:48:50.513Z,2.30
2022-12-07T06:51:17.072Z,2.30
2022-12-07T06:53:43.669Z,2.30
2022-12-07T06:56:10.263Z,2.30
2022-12-07T06:58:36.827Z,2.30
2022-12-07T07:01:04.005Z,2.30
2022-12-07T07:03:30.627Z,2.30
2022-12-07T07:05:57.193Z,2.30
2022-12-07T07:08:24.312Z,2.20
2022-12-07T07:10:51.116Z,2.20
2022-12-07T07:13:17.886Z,2.20
2022-12-07T07:15:44.530Z,2.20
2022-12-07T07:18:11.189Z,2.10
2022-12-07T07:20:38.284Z,2.10
2022-12-07T07:23:05.213Z,2.20
2022-12-07T07:25:32.782Z,2.10
2022-12-07T07:27:59.760Z,2.10
2022-12-07T07:30:27.010Z,2.10
2022-12-07T07:33:01.499Z,2.00
2022-12-07T07:35:28.637Z,2.10
2022-12-07T07:37:55.676Z,2.10
2022-12-07T07:40:22.267Z,2.10
2022-12-07T07:42:52.881Z,2.10
2022-12-07T07:45:21.025Z,2.10
2022-12-07T07:47:47.733Z,2.10
2022-12-07T07:50:14.953Z,2.10
2022-12-07T07:52:41.532Z,2.10
2022-12-07T07:55:08.304Z,2.20
2022-12-07T07:57:35.415Z,2.20
2022-12-07T08:00:05.011Z,2.30
2022-12-07T08:02:31.885Z,2.30
2022-12-07T08:04:58.483Z,2.30
2022-12-07T08:07:25.080Z,2.30
2022-12-07T08:09:51.631Z,2.30
2022-12-07T08:12:18.203Z,2.40
2022-12-07T08:14:44.762Z,2.40
2022-12-07T08:17:11.370Z,2.40
2022-12-07T08:19:37.932Z,2.40
2022-12-07T08:22:04.538Z,2.40
2022-12-07T08:24:31.160Z,2.50
2022-12-07T08:26:57.717Z,2.40
2022-12-07T08:29:24.298Z,2.50
2022-12-07T08:31:50.877Z,2.40
2022-12-07T08:34:17.450Z,2.50
2022-12-07T08:36:44.033Z,2.50
2022-12-07T08:41:57.324Z,2.60
2022-12-07T08:44:23.926Z,2.60
2022-12-07T08:47:05.798Z,2.60
2022-12-07T08:49:42.800Z,2.60
2022-12-07T08:52:09.407Z,2.60
2022-12-07T08:54:39.370Z,2.60
2022-12-07T08:57:06.859Z,2.70
2022-12-07T08:59:36.660Z,2.70
2022-12-07T09:02:03.635Z,2.70
2022-12-07T09:04:30.349Z,2.70
2022-12-07T09:06:57.301Z,2.70
2022-12-07T09:09:24.059Z,2.70
2022-12-07T09:11:50.657Z,2.70
2022-12-07T09:14:17.237Z,2.60
2022-12-07T09:16:43.838Z,2.70
2022-12-07T09:19:10.407Z,2.80
2022-12-07T09:21:36.979Z,2.80
2022-12-07T09:24:03.719Z,2.90
2022-12-07T09:26:30.499Z,2.90
2022-12-07T09:28:57.089Z,3.00
2022-12-07T09:31:25.070Z,3.00
2022-12-07T09:34:00.388Z,3.00
2022-12-07T09:36:28.115Z,3.10
2022-12-07T09:38:56.411Z,3.10
2022-12-07T09:41:25.003Z,3.10
2022-12-07T09:43:53.172Z,3.20
2022-12-07T09:46:21.325Z,3.20
2022-12-07T09:48:50.226Z,3.30
2022-12-07T09:51:25.623Z,3.30
2022-12-07T09:53:58.641Z,3.40
2022-12-07T09:56:25.537Z,3.40
2022-12-07T09:59:01.044Z,3.50
2022-12-07T10:01:31.220Z,3.60
2022-12-07T10:04:19.108Z,3.60
2022-12-07T10:06:45.756Z,3.70
2022-12-07T10:09:17.289Z,3.70
2022-12-07T10:12:06.216Z,3.70
2022-12-07T10:15:05.796Z,3.80
2022-12-07T10:17:35.950Z,3.80
2022-12-07T10:20:21.969Z,3.80
2022-12-07T10:23:06.750Z,3.80
2022-12-07T10:25:34.728Z,3.80
2022-12-07T10:28:22.008Z,3.90
2022-12-07T10:30:58.649Z,3.90
2022-12-07T10:33:39.667Z,3.90
2022-12-07T10:36:23.304Z,4.00
2022-12-07T10:39:13.158Z,4.20
2022-12-07T10:41:56.016Z,4.30
2022-12-07T10:44:24.989Z,4.50
2022-12-07T10:47:00.505Z,4.50
2022-12-07T10:49:39.362Z,4.60
2022-12-07T10:52:41.168Z,4.70
2022-12-07T10:55:55.409Z,4.70
2022-12-07T10:58:49.787Z,4.80
2022-12-07T11:01:22.388Z,4.90
2022-12-07T11:04:12.177Z,5.20
2022-12-07T11:06:47.610Z,5.30
2022-12-07T11:10:08.453Z,5.40
2022-12-07T11:12:57.966Z,5.50
2022-12-07T11:15:56.281Z,5.40
2022-12-07T11:18:32.452Z,5.40
2022-12-07T11:21:26.446Z,5.30
2022-12-07T11:24:10.874Z,5.30
2022-12-07T11:27:07.006Z,5.40
2022-12-07T11:30:03.201Z,5.40
2022-12-07T11:32:44.029Z,5.40
2022-12-07T11:35:13.307Z,5.20
2022-12-07T11:40:25.698Z,5.20
2022-12-07T11:43:13.396Z,5.20
2022-12-07T11:45:44.465Z,5.10
2022-12-07T11:48:25.886Z,5.10
2022-12-07T11:50:57.448Z,5.10
2022-12-07T11:53:33.429Z,5.00
2022-12-07T11:56:12.081Z,4.90
2022-12-07T11:59:09.501Z,5.10
2022-12-07T12:01:38.892Z,5.10
2022-12-07T12:04:11.133Z,5.10
2022-12-07T12:06:39.363Z,5.00
2022-12-07T12:15:15.448Z,5.10
2022-12-07T12:18:14.312Z,5.00
2022-12-07T12:20:44.005Z,5.00
2022-12-07T12:23:19.430Z,5.00
2022-12-07T12:26:02.084Z,5.10
2022-12-07T12:28:46.808Z,5.00
2022-12-07T12:31:22.437Z,5.00
2022-12-07T12:33:55.082Z,5.00
2022-12-07T12:36:27.749Z,4.90
2022-12-07T12:39:09.433Z,4.80
2022-12-07T12:41:39.043Z,4.90
2022-12-07T12:44:31.850Z,4.80
2022-12-07T12:47:05.139Z,4.80
2022-12-07T12:49:38.458Z,4.90
2022-12-07T12:52:24.968Z,4.90
2022-12-07T12:55:16.070Z,5.00
2022-12-07T12:57:42.646Z,4.90
2022-12-07T13:00:23.360Z,4.80
2022-12-07T13:02:53.298Z,4.70
2022-12-07T13:05:28.679Z,4.70
2022-12-07T13:07:57.679Z,4.80
2022-12-07T13:10:27.393Z,4.70
2022-12-07T13:13:11.728Z,4.80
2022-12-07T13:15:47.078Z,4.70
2022-12-07T13:18:24.836Z,4.60
2022-12-07T13:20:54.038Z,4.70
2022-12-07T13:23:27.117Z,4.70
2022-12-07T13:26:02.499Z,4.70
2022-12-07T13:28:36.438Z,4.70
2022-12-07T13:31:40.434Z,4.70
2022-12-07T13:34:35.736Z,4.60
2022-12-07T13:37:23.997Z,4.60
2022-12-07T13:39:53.594Z,4.60
2022-12-07T13:42:25.892Z,4.70
2022-12-07T13:44:52.863Z,4.70
2022-12-07T13:47:39.426Z,4.70
2022-12-07T13:50:27.453Z,4.80
2022-12-07T13:53:01.705Z,4.80
2022-12-07T13:55:29.885Z,4.80
2022-12-07T13:57:56.840Z,4.80
2022-12-07T14:00:28.750Z,4.80
2022-12-07T14:02:56.872Z,4.80
2022-12-07T14:05:31.505Z,4.80
2022-12-07T14:08:03.927Z,4.70
2022-12-07T14:10:35.996Z,4.70
2022-12-07T14:13:19.990Z,4.70
2022-12-07T14:15:51.938Z,4.70
2022-12-07T14:18:36.786Z,4.70
2022-12-07T14:21:07.716Z,4.60
2022-12-07T14:23:34.282Z,4.60
2022-12-07T14:26:08.190Z,4.60
2022-12-07T14:28:36.950Z,4.50
2022-12-07T14:31:04.824Z,4.50
2022-12-07T14:33:31.511Z,4.50
2022-12-07T14:35:59.207Z,4.60
2022-12-07T14:38:26.649Z,4.40
2022-12-07T14:40:55.637Z,4.50
2022-12-07T14:43:22.257Z,4.50
2022-12-07T14:45:48.961Z,4.50
2022-12-07T14:53:56.797Z,4.40
2022-12-07T14:56:24.825Z,4.40
2022-12-07T14:58:51.461Z,4.40
2022-12-07T15:01:18.124Z,4.40
2022-12-07T15:03:44.778Z,4.30
2022-12-07T15:06:15.550Z,4.30
2022-12-07T15:08:42.318Z,4.30
2022-12-07T15:11:14.150Z,4.30
2022-12-07T15:13:40.700Z,4.30
2022-12-07T15:16:12.002Z,4.20
2022-12-07T15:18:40.396Z,4.20
2022-12-07T15:21:15.135Z,4.20
2022-12-07T15:23:42.165Z,4.10
2022-12-07T15:26:10.341Z,4.10
2022-12-07T15:28:37.321Z,4.10
2022-12-07T15:31:31.901Z,4.10
2022-12-07T15:33:50.820Z,4.10
2022-12-07T15:36:23.046Z,4.00
2022-12-07T15:39:13.015Z,4.00
2022-12-07T15:41:37.134Z,3.90
2022-12-07T15:44:03.867Z,3.80
2022-12-07T15:46:31.936Z,3.80
2022-12-07T15:48:58.885Z,3.80
2022-12-07T15:51:25.530Z,3.80
2022-12-07T15:53:52.460Z,3.80
2022-12-07T15:56:19.452Z,3.70
2022-12-07T15:58:46.044Z,3.70
2022-12-07T16:01:13.647Z,3.70
2022-12-07T16:03:40.323Z,3.60
2022-12-07T16:06:07.736Z,3.60
2022-12-07T16:08:36.689Z,3.60
2022-12-07T16:11:09.430Z,3.60
2022-12-07T16:13:36.096Z,3.60
2022-12-07T16:16:07.385Z,3.50
2022-12-07T16:18:34.254Z,3.50
2022-12-07T16:21:00.888Z,3.50
2022-12-07T16:23:28.389Z,3.40
2022-12-07T16:25:55.080Z,3.40
2022-12-07T16:28:21.654Z,3.40
2022-12-07T16:30:48.210Z,3.30
2022-12-07T16:33:14.800Z,3.30
2022-12-07T16:35:41.712Z,3.20
2022-12-07T16:38:08.516Z,3.30
2022-12-07T16:40:35.109Z,3.20
2022-12-07T16:43:02.049Z,3.20
2022-12-07T16:45:28.827Z,3.10
2022-12-07T16:47:55.387Z,3.10
2022-12-07T16:50:21.961Z,3.10
2022-12-07T16:52:48.750Z,3.00
2022-12-07T16:55:15.437Z,3.00
2022-12-07T16:57:42.006Z,3.00
2022-12-07T17:00:09.221Z,2.90
2022-12-07T17:02:35.800Z,2.90
2022-12-07T17:05:02.705Z,2.90
2022-12-07T17:07:29.521Z,2.80
2022-12-07T17:09:56.086Z,2.80
2022-12-07T17:12:22.673Z,2.80
2022-12-07T17:14:49.672Z,2.70
2022-12-07T17:17:16.287Z,2.70
2022-12-07T17:19:42.880Z,2.60
2022-12-07T17:22:09.458Z,2.60
2022-12-07T17:24:36.040Z,2.50
2022-12-07T17:27:02.611Z,2.50
2022-12-07T17:29:29.188Z,2.40
2022-12-07T17:31:55.853Z,2.40
2022-12-07T17:34:22.526Z,2.30
2022-12-07T17:36:49.169Z,2.30
2022-12-07T17:39:18.807Z,2.30
2022-12-07T17:41:45.711Z,2.10
2022-12-07T17:44:17.221Z,2.10
2022-12-07T17:46:44.490Z,2.10
2022-12-07T17:49:11.268Z,2.00
2022-12-07T17:51:37.861Z,2.00
2022-12-07T17:54:04.553Z,1.90
2022-12-07T17:56:31.131Z,1.90
2022-12-07T17:58:57.711Z,1.90
2022-12-07T18:01:25.867Z,1.80
2022-12-07T18:03:54.161Z,1.80
2022-12-07T18:06:20.878Z,1.70
2022-12-07T18:08:47.557Z,1.70
2022-12-07T18:11:14.148Z,1.70
2022-12-07T18:13:40.766Z,1.60
2022-12-07T18:16:09.975Z,1.60
2022-12-07T18:18:37.928Z,1.60
2022-12-07T18:21:16.734Z,1.50
2022-12-07T18:23:51.656Z,1.50
2022-12-07T18:26:19.467Z,1.50
2022-12-07T18:28:46.800Z,1.40
2022-12-07T18:31:15.617Z,1.40
2022-12-07T18:33:44.557Z,1.40
2022-12-07T18:36:11.368Z,1.30
2022-12-07T18:38:38.488Z,1.30
2022-12-07T18:41:08.736Z,1.20
2022-12-07T18:43:35.329Z,1.10
2022-12-07T18:46:02.044Z,1.10
2022-12-07T18:48:29.939Z,1.10
2022-12-07T18:51:05.309Z,1.10
2022-12-07T18:53:32.628Z,1.20
2022-12-07T18:56:08.226Z,1.10
2022-12-07T18:58:34.925Z,1.10
2022-12-07T19:01:01.584Z,1.20
2022-12-07T19:03:33.090Z,1.20
2022-12-07T19:06:06.224Z,1.10
2022-12-07T19:08:32.832Z,1.10
2022-12-07T19:10:59.415Z,1.00
2022-12-07T19:13:25.997Z,1.00
2022-12-07T19:15:52.952Z,1.00
2022-12-07T19:18:19.552Z,1.10
2022-12-07T19:20:46.130Z,1.10
2022-12-07T19:23:12.690Z,1.10
2022-12-07T19:25:40.321Z,1.00
2022-12-07T19:28:06.907Z,1.00
2022-12-07T19:30:33.490Z,1.00
2022-12-07T19:33:00.097Z,1.00
2022-12-07T19:35:26.679Z,1.00
2022-12-07T19:37:53.260Z,1.00
2022-12-07T19:40:19.840Z,1.00
2022-12-07T19:42:46.427Z,1.00
2022-12-07T19:45:12.999Z,1.00
2022-12-07T19:47:39.569Z,0.90
2022-12-07T19:50:06.817Z,0.90
2022-12-07T19:52:36.594Z,0.90
2022-12-07T19:55:04.331Z,1.00
2022-12-07T19:57:31.139Z,1.00
2022-12-07T19:59:57.701Z,1.00
2022-12-07T20:02:24.302Z,1.10
2022-12-07T20:04:50.922Z,1.00
2022-12-07T20:07:17.540Z,1.00
2022-12-07T20:09:44.137Z,1.00
2022-12-07T20:12:11.345Z,1.10
2022-12-07T20:14:38.395Z,1.10
2022-12-07T20:17:05.553Z,1.10
2022-12-07T20:19:32.363Z,1.00
2022-12-07T20:21:58.975Z,1.00
2022-12-07T20:24:26.387Z,1.00
2022-12-07T20:26:54.245Z,1.10
2022-12-07T20:29:23.378Z,1.10
2022-12-07T20:31:51.372Z,1.10
2022-12-07T20:34:18.302Z,1.00
2022-12-07T20:36:45.063Z,1.10
2022-12-07T20:39:12.162Z,1.00
2022-12-07T20:41:39.486Z,1.10
2022-12-07T20:44:06.069Z,1.10
2022-12-07T20:46:32.896Z,1.20
2022-12-07T20:49:00.660Z,1.20
2022-12-07T20:51:28.712Z,1.30
2022-12-07T20:53:55.932Z,1.20
2022-12-07T20:56:31.402Z,1.30
2022-12-07T20:59:00.578Z,1.30
2022-12-07T21:01:27.602Z,1.30
2022-12-07T21:03:55.938Z,1.30
2022-12-07T21:06:22.903Z,1.30
2022-12-07T21:08:51.333Z,1.30
2022-12-07T21:11:19.080Z,1.30
2022-12-07T21:13:46.018Z,1.30
2022-12-07T21:16:15.459Z,1.30
2022-12-07T21:18:42.459Z,1.30
2022-12-07T21:21:10.345Z,1.20
2022-12-07T21:23:38.193Z,1.20
2022-12-07T21:26:12.615Z,1.20
2022-12-07T21:28:39.137Z,1.30
2022-12-07T21:31:14.235Z,1.30
2022-12-07T21:33:41.470Z,1.30
2022-12-07T21:36:08.582Z,1.30
2022-12-07T21:38:35.784Z,1.30
2022-12-07T21:41:18.434Z,1.30
2022-12-07T21:43:46.079Z,1.30
2022-12-07T21:46:13.249Z,1.30
2022-12-07T21:48:40.840Z,1.40
2022-12-07T21:51:09.791Z,1.30
2022-12-07T21:53:38.218Z,1.30
2022-12-07T21:56:09.049Z,1.30
2022-12-07T21:58:35.628Z,1.30
2022-12-07T22:01:02.206Z,1.40
2022-12-07T22:03:28.782Z,1.40
2022-12-07T22:06:01.758Z,1.40
2022-12-07T22:08:28.692Z,1.40
2022-12-07T22:11:00.230Z,1.40
2022-12-07T22:13:26.821Z,1.50
2022-12-07T22:15:53.448Z,1.50
2022-12-07T22:18:20.049Z,1.50
2022-12-07T22:20:46.618Z,1.50
2022-12-07T22:23:13.193Z,1.50
2022-12-07T22:25:39.865Z,1.50
2022-12-07T22:28:06.451Z,1.50
2022-12-07T22:30:33.070Z,1.50
2022-12-07T22:32:59.688Z,1.50
2022-12-07T22:35:26.320Z,1.40
2022-12-07T22:37:52.883Z,1.40
2022-12-07T22:40:19.489Z,1.40
2022-12-07T22:42:46.077Z,1.50
2022-12-07T22:45:12.655Z,1.50
2022-12-07T22:47:39.790Z,1.50
2022-12-07T22:50:06.942Z,1.50
2022-12-07T22:52:33.524Z,1.40
2022-12-07T22:55:00.248Z,1.50
2022-12-07T22:57:29.819Z,1.40
2022-12-07T22:59:56.448Z,1.40
2022-12-07T23:02:23.067Z,1.50
2022-12-07T23:04:49.648Z,1.40
2022-12-07T23:07:16.236Z,1.50
2022-12-07T23:09:42.798Z,1.50
2022-12-07T23:12:09.746Z,1.50
2022-12-07T23:14:36.866Z,1.50
2022-12-07T23:17:04.444Z,1.50
2022-12-07T23:19:31.364Z,1.60
2022-12-07T23:21:58.169Z,1.60
2022-12-07T23:24:24.763Z,1.50
2022-12-07T23:26:51.368Z,1.60
2022-12-07T23:29:18.451Z,1.60
2022-12-07T23:31:46.706Z,1.60
2022-12-07T23:34:13.536Z,1.60
2022-12-07T23:36:40.119Z,1.60
2022-12-07T23:39:07.200Z,1.70
2022-12-07T23:41:33.905Z,1.70
2022-12-07T23:44:01.268Z,1.70
2022-12-07T23:46:32.372Z,1.70
2022-12-07T23:49:01.146Z,1.80
2022-12-07T23:51:27.771Z,1.70
2022-12-07T23:53:54.965Z,1.70
2022-12-07T23:56:26.866Z,1.80
2022-12-07T23:58:54.339Z,1.80
